createdAt,value
2022-08-21T00:01:50.850Z,100164.44
2022-08-21T00:04:22.381Z,100164.69
2022-08-21T00:06:51.099Z,100185.09
2022-08-21T00:09:18.641Z,100176.63
2022-08-21T00:11:45.790Z,100187.94
2022-08-21T00:14:13.934Z,100194.19
2022-08-21T00:16:41.270Z,100196.25
2022-08-21T00:19:09.524Z,100191.38
2022-08-21T00:21:37.398Z,100192.66
2022-08-21T00:24:04.593Z,100188.47
2022-08-21T00:26:31.241Z,100179.50
2022-08-21T00:28:58.398Z,100181.78
2022-08-21T00:31:26.144Z,100176.19
2022-08-21T00:33:52.960Z,100184.31
2022-08-21T00:36:27.325Z,100176.44
2022-08-21T00:38:54.156Z,100169.16
2022-08-21T00:41:38.206Z,100174.19
2022-08-21T00:44:07.898Z,100185.16
2022-08-21T00:46:35.362Z,100179.97
2022-08-21T00:49:02.080Z,100178.63
2022-08-21T00:51:40.965Z,100166.16
2022-08-21T00:54:12.980Z,100161.53
2022-08-21T00:56:48.339Z,100176.94
2022-08-21T00:59:17.449Z,100157.81
2022-08-21T01:01:44.132Z,100171.34
2022-08-21T01:04:11.085Z,100180.66
2022-08-21T01:06:37.998Z,100179.06
2022-08-21T01:09:04.907Z,100159.59
2022-08-21T01:11:32.253Z,100162.88
2022-08-21T01:13:59.017Z,100148.25
2022-08-21T01:16:26.166Z,100155.00
2022-08-21T01:18:53.134Z,100164.06
2022-08-21T01:21:28.226Z,100176.53
2022-08-21T01:23:57.402Z,100169.94
2022-08-21T01:26:33.882Z,100172.63
2022-08-21T01:29:11.206Z,100191.00
2022-08-21T01:31:38.263Z,100169.78
2022-08-21T01:34:05.128Z,100174.16
2022-08-21T01:36:32.525Z,100175.75
2022-08-21T01:38:59.537Z,100159.41
2022-08-21T01:41:26.431Z,100180.25
2022-08-21T01:43:53.075Z,100165.91
2022-08-21T01:46:20.684Z,100165.78
2022-08-21T01:48:47.387Z,100164.56
2022-08-21T01:51:15.739Z,100186.50
2022-08-21T01:53:42.969Z,100170.69
2022-08-21T01:56:12.571Z,100191.53
2022-08-21T01:58:41.310Z,100182.84
2022-08-21T02:01:08.557Z,100194.34
2022-08-21T02:03:36.278Z,100183.69
2022-08-21T02:06:05.608Z,100185.59
2022-08-21T02:08:32.735Z,100188.84
2022-08-21T02:10:59.662Z,100195.59
2022-08-21T02:13:26.690Z,100176.13
2022-08-21T02:15:53.428Z,100184.16
2022-08-21T02:18:20.102Z,100173.44
2022-08-21T02:20:49.251Z,100189.00
2022-08-21T02:23:27.044Z,100184.47
2022-08-21T02:26:07.780Z,100174.00
2022-08-21T02:28:36.159Z,100186.28
2022-08-21T02:31:03.314Z,100183.25
2022-08-21T02:33:31.182Z,100170.09
2022-08-21T02:35:58.400Z,100189.84
2022-08-21T02:38:28.229Z,100181.22
2022-08-21T02:40:56.210Z,100183.09
2022-08-21T02:43:24.678Z,100183.84
2022-08-21T02:45:52.544Z,100173.03
2022-08-21T02:48:22.688Z,100183.13
2022-08-21T02:50:58.682Z,100168.22
2022-08-21T02:53:25.737Z,100166.84
2022-08-21T02:55:53.765Z,100170.38
2022-08-21T02:58:28.327Z,100169.91
2022-08-21T03:00:55.809Z,100159.28
2022-08-21T03:03:22.619Z,100174.63
2022-08-21T03:05:50.090Z,100172.09
2022-08-21T03:08:18.727Z,100175.81
2022-08-21T03:10:49.832Z,100161.09
2022-08-21T03:13:17.101Z,100180.00
2022-08-21T03:15:44.877Z,100180.34
2022-08-21T03:18:12.517Z,100176.88
2022-08-21T03:20:41.318Z,100121.03
2022-08-21T03:23:13.159Z,100173.44
2022-08-21T03:25:44.071Z,100147.34
2022-08-21T03:28:14.944Z,100146.41
2022-08-21T03:30:44.748Z,100132.34
2022-08-21T03:33:13.098Z,100124.53
2022-08-21T03:35:48.156Z,100154.69
2022-08-21T03:38:14.985Z,100119.44
2022-08-21T03:40:43.748Z,100166.97
2022-08-21T03:43:11.249Z,100169.25
2022-08-21T03:45:39.206Z,100143.34
2022-08-21T03:48:07.689Z,100150.81
2022-08-21T03:50:41.185Z,100159.84
2022-08-21T03:53:16.735Z,100163.66
2022-08-21T03:55:49.332Z,100136.41
2022-08-21T03:58:18.093Z,100171.78
2022-08-21T04:00:47.486Z,100139.16
2022-08-21T04:03:14.234Z,100111.91
2022-08-21T04:05:42.889Z,100177.81
2022-08-21T04:08:10.167Z,100141.41
2022-08-21T04:10:39.332Z,100171.66
2022-08-21T04:13:07.454Z,100151.97
2022-08-21T04:15:35.123Z,100170.44
2022-08-21T04:18:02.141Z,100154.06
2022-08-21T04:20:29.085Z,100154.84
2022-08-21T04:22:56.241Z,100172.47
2022-08-21T04:25:24.315Z,100169.81
2022-08-21T04:27:52.215Z,100182.50
2022-08-21T04:30:19.554Z,100190.47
2022-08-21T04:32:56.149Z,100204.03
2022-08-21T04:35:24.724Z,100182.97
2022-08-21T04:37:51.921Z,100184.47
2022-08-21T04:40:20.747Z,100216.44
2022-08-21T04:42:55.650Z,100168.59
2022-08-21T04:45:28.014Z,100171.91
2022-08-21T04:47:57.950Z,100207.50
2022-08-21T04:50:31.136Z,100163.63
2022-08-21T04:52:58.699Z,100182.19
2022-08-21T04:55:28.532Z,100206.69
2022-08-21T04:57:57.154Z,100209.56
2022-08-21T05:00:25.738Z,100210.06
2022-08-21T05:02:57.539Z,100216.22
2022-08-21T05:05:25.191Z,100224.19
2022-08-21T05:07:54.256Z,100209.75
2022-08-21T05:10:21.645Z,100224.16
2022-08-21T05:12:48.523Z,100213.75
2022-08-21T05:15:15.570Z,100214.75
2022-08-21T05:17:42.935Z,100211.78
2022-08-21T05:20:11.690Z,100201.00
2022-08-21T05:22:38.422Z,100241.78
2022-08-21T05:25:10.624Z,100248.06
2022-08-21T05:27:39.645Z,100256.47
2022-08-21T05:30:10.741Z,100261.72
2022-08-21T05:32:37.845Z,100242.81
2022-08-21T05:35:08.450Z,100226.13
2022-08-21T05:37:36.136Z,100226.34
2022-08-21T05:40:21.600Z,100254.44
2022-08-21T05:42:55.627Z,100267.13
2022-08-21T05:45:41.983Z,100279.16
2022-08-21T05:48:18.023Z,100265.59
2022-08-21T05:50:47.260Z,100241.97
2022-08-21T05:53:15.639Z,100277.47
2022-08-21T05:55:46.109Z,100271.28
2022-08-21T05:58:19.778Z,100249.50
2022-08-21T06:00:48.632Z,100254.34
2022-08-21T06:03:23.568Z,100280.94
2022-08-21T06:05:50.985Z,100266.47
2022-08-21T06:08:19.251Z,100233.72
2022-08-21T06:10:47.709Z,100275.03
2022-08-21T06:13:15.518Z,100300.88
2022-08-21T06:15:42.826Z,100275.94
2022-08-21T06:18:10.140Z,100274.44
2022-08-21T06:20:37.098Z,100298.84
2022-08-21T06:23:07.306Z,100286.22
2022-08-21T06:25:34.234Z,100259.16
2022-08-21T06:28:07.196Z,100299.75
2022-08-21T06:30:35.450Z,100288.34
2022-08-21T06:33:03.392Z,100279.84
2022-08-21T06:35:30.405Z,100264.88
2022-08-21T06:37:58.594Z,100237.50
2022-08-21T06:40:26.494Z,100293.66
2022-08-21T06:42:53.569Z,100245.94
2022-08-21T06:45:20.879Z,100261.44
2022-08-21T06:47:47.734Z,100279.56
2022-08-21T06:50:14.493Z,100255.16
2022-08-21T06:52:41.472Z,100239.66
2022-08-21T06:55:10.850Z,100268.50
2022-08-21T06:57:37.703Z,100289.00
2022-08-21T07:00:06.536Z,100313.94
2022-08-21T07:02:34.695Z,100293.69
2022-08-21T07:05:09.010Z,100309.25
2022-08-21T07:07:45.491Z,100272.66
2022-08-21T07:10:21.987Z,100265.97
2022-08-21T07:12:49.541Z,100305.09
2022-08-21T07:15:17.957Z,100299.25
2022-08-21T07:17:44.713Z,100268.41
2022-08-21T07:20:11.687Z,100250.66
2022-08-21T07:22:41.900Z,100266.38
2022-08-21T07:25:09.648Z,100297.31
2022-08-21T07:27:37.317Z,100267.59
2022-08-21T07:30:06.157Z,100250.09
2022-08-21T07:32:33.325Z,100240.59
2022-08-21T07:35:00.058Z,100304.81
2022-08-21T07:37:27.058Z,100283.41
2022-08-21T07:39:53.973Z,100279.03
2022-08-21T07:42:20.839Z,100294.09
2022-08-21T07:44:47.729Z,100275.22
2022-08-21T07:47:17.731Z,100280.34
2022-08-21T07:50:04.947Z,100308.03
2022-08-21T07:52:32.069Z,100277.31
2022-08-21T07:55:05.376Z,100302.34
2022-08-21T07:57:33.120Z,100307.72
2022-08-21T07:59:59.932Z,100271.63
2022-08-21T08:02:29.168Z,100315.34
2022-08-21T08:05:00.221Z,100309.66
2022-08-21T08:07:27.243Z,100292.59
2022-08-21T08:09:54.252Z,100303.22
2022-08-21T08:12:21.819Z,100303.06
2022-08-21T08:14:48.656Z,100324.50
2022-08-21T08:17:15.414Z,100344.50
2022-08-21T08:19:42.179Z,100332.28
2022-08-21T08:22:21.608Z,100329.38
2022-08-21T08:24:49.485Z,100373.22
2022-08-21T08:27:17.330Z,100302.84
2022-08-21T08:29:45.171Z,100376.50
2022-08-21T08:32:12.356Z,100358.16
2022-08-21T08:34:39.984Z,100333.72
2022-08-21T08:37:10.677Z,100375.97
2022-08-21T08:39:39.081Z,100338.59
2022-08-21T08:42:34.042Z,100385.34
2022-08-21T08:45:14.815Z,100332.91
2022-08-21T08:47:47.730Z,100266.28
2022-08-21T08:50:29.541Z,100372.38
2022-08-21T08:53:05.912Z,100346.31
2022-08-21T08:55:42.197Z,100326.66
2022-08-21T08:58:27.878Z,100379.22
2022-08-21T09:00:56.267Z,100319.06
2022-08-21T09:03:27.903Z,100333.09
2022-08-21T09:06:07.556Z,100379.81
2022-08-21T09:09:03.548Z,100373.78
2022-08-21T09:11:53.350Z,100351.63
2022-08-21T09:14:45.346Z,100382.78
2022-08-21T09:17:27.736Z,100384.16
2022-08-21T09:20:18.716Z,100384.41
2022-08-21T09:22:54.130Z,100330.44
2022-08-21T09:25:31.965Z,100394.59
2022-08-21T09:27:58.736Z,100356.81
2022-08-21T09:30:30.494Z,100397.38
2022-08-21T09:32:57.984Z,100375.84
2022-08-21T09:35:25.806Z,100322.13
2022-08-21T09:38:03.976Z,100376.34
2022-08-21T09:40:36.752Z,100406.25
2022-08-21T09:43:05.879Z,100410.81
2022-08-21T09:45:34.186Z,100370.84
2022-08-21T09:53:55.979Z,100385.84
2022-08-21T09:56:46.018Z,100410.69
2022-08-21T09:59:36.336Z,100414.91
2022-08-21T10:02:35.943Z,100373.31
2022-08-21T10:05:24.857Z,100362.41
2022-08-21T10:07:52.330Z,100397.78
2022-08-21T10:10:27.759Z,100395.94
2022-08-21T10:13:15.125Z,100394.00
2022-08-21T10:15:53.706Z,100432.53
2022-08-21T10:18:39.072Z,100324.19
2022-08-21T10:21:27.884Z,100364.38
2022-08-21T10:24:31.072Z,100412.94
2022-08-21T10:27:11.133Z,100451.47
2022-08-21T10:30:00.903Z,100430.84
2022-08-21T10:32:57.014Z,100449.22
2022-08-21T10:35:23.755Z,100460.09
2022-08-21T10:38:10.167Z,100448.34
2022-08-21T10:40:59.746Z,100434.56
2022-08-21T10:43:40.164Z,100466.16
2022-08-21T10:46:51.483Z,100408.63
2022-08-21T10:49:18.212Z,100470.66
2022-08-21T10:52:20.133Z,100463.47
2022-08-21T10:54:53.483Z,100463.34
2022-08-21T10:57:43.485Z,100452.19
2022-08-21T11:00:14.954Z,100414.00
2022-08-21T11:02:46.417Z,100469.91
2022-08-21T11:05:20.626Z,100440.28
2022-08-21T11:08:01.239Z,100476.53
2022-08-21T11:10:58.209Z,100497.38
2022-08-21T11:13:35.935Z,100486.94
2022-08-21T11:16:18.620Z,100452.38
2022-08-21T11:18:52.158Z,100470.47
2022-08-21T11:21:35.734Z,100466.63
2022-08-21T11:24:17.006Z,100492.84
2022-08-21T11:27:16.278Z,100511.38
2022-08-21T11:29:45.955Z,100477.25
2022-08-21T11:32:27.837Z,100514.63
2022-08-21T11:35:12.947Z,100516.53
2022-08-21T11:37:57.681Z,100528.31
2022-08-21T11:40:36.582Z,100525.19
2022-08-21T11:43:31.245Z,100525.06
2022-08-21T11:46:23.871Z,100496.78
2022-08-21T11:49:02.915Z,100521.34
2022-08-21T11:52:14.672Z,100532.91
2022-08-21T11:55:04.220Z,100528.25
2022-08-21T11:57:56.236Z,100536.56
2022-08-21T12:00:34.509Z,100534.56
2022-08-21T12:03:14.137Z,100481.56
2022-08-21T12:05:43.428Z,100499.47
2022-08-21T12:08:10.054Z,100547.13
2022-08-21T12:10:49.064Z,100523.19
2022-08-21T12:13:40.699Z,100535.94
2022-08-21T12:16:29.060Z,100520.03
2022-08-21T12:19:31.529Z,100528.22
2022-08-21T12:21:58.142Z,100540.81
2022-08-21T12:24:28.065Z,100549.00
2022-08-21T12:26:56.308Z,100549.53
2022-08-21T12:29:33.853Z,100548.00
2022-08-21T12:32:01.965Z,100547.88
2022-08-21T12:34:54.603Z,100533.28
2022-08-21T12:37:40.905Z,100544.75
2022-08-21T12:40:42.752Z,100537.75
2022-08-21T12:43:17.461Z,100521.59
2022-08-21T12:45:52.241Z,100535.25
2022-08-21T12:48:28.024Z,100552.19
2022-08-21T12:51:34.962Z,100558.25
2022-08-21T12:54:01.783Z,100542.53
2022-08-21T12:56:32.358Z,100542.47
2022-08-21T12:59:06.252Z,100514.88
2022-08-21T13:01:41.863Z,100558.38
2022-08-21T13:04:17.549Z,100549.25
2022-08-21T13:06:52.399Z,100516.41
2022-08-21T13:09:24.581Z,100519.41
2022-08-21T13:11:52.647Z,100556.50
2022-08-21T13:14:26.836Z,100536.56
2022-08-21T13:16:56.107Z,100513.47
2022-08-21T13:19:24.109Z,100568.63
2022-08-21T13:21:53.498Z,100531.44
2022-08-21T13:24:41.107Z,100549.97
2022-08-21T13:27:31.383Z,100536.69
2022-08-21T13:30:23.241Z,100551.44
2022-08-21T13:32:53.577Z,100523.38
2022-08-21T13:35:27.089Z,100560.38
2022-08-21T13:37:56.362Z,100540.63
2022-08-21T13:40:30.368Z,100570.47
2022-08-21T13:42:58.003Z,100540.13
2022-08-21T13:45:33.778Z,100540.31
2022-08-21T13:48:06.721Z,100555.16
2022-08-21T13:50:43.640Z,100545.91
2022-08-21T13:53:25.095Z,100574.69
2022-08-21T13:55:52.246Z,100552.84
2022-08-21T13:58:46.671Z,100575.25
2022-08-21T14:01:38.195Z,100574.00
2022-08-21T14:04:20.563Z,100541.13
2022-08-21T14:06:48.127Z,100553.22
2022-08-21T14:09:31.771Z,100510.47
2022-08-21T14:12:22.253Z,100542.25
2022-08-21T14:14:52.843Z,100532.69
2022-08-21T14:17:34.656Z,100552.06
2022-08-21T14:20:02.196Z,100565.41
2022-08-21T14:22:44.545Z,100582.00
2022-08-21T14:25:20.385Z,100584.28
2022-08-21T14:28:19.317Z,100598.19
2022-08-21T14:30:47.513Z,100529.28
2022-08-21T14:33:32.016Z,100527.88
2022-08-21T14:35:59.949Z,100580.31
2022-08-21T14:38:28.718Z,100567.03
2022-08-21T14:41:12.595Z,100583.59
2022-08-21T14:43:40.155Z,100578.41
2022-08-21T14:46:06.976Z,100612.88
2022-08-21T14:48:33.921Z,100616.38
2022-08-21T14:51:00.936Z,100559.94
2022-08-21T14:53:27.901Z,100587.47
2022-08-21T14:56:08.090Z,100571.47
2022-08-21T14:58:39.230Z,100588.88
2022-08-21T15:01:10.511Z,100586.09
2022-08-21T15:03:38.163Z,100536.97
2022-08-21T15:06:07.504Z,100635.91
2022-08-21T15:08:35.021Z,100550.09
2022-08-21T15:11:13.805Z,100596.72
2022-08-21T15:13:43.393Z,100546.66
2022-08-21T15:16:12.163Z,100565.59
2022-08-21T15:18:39.650Z,100629.47
2022-08-21T15:21:06.974Z,100657.06
2022-08-21T15:23:33.901Z,100593.81
2022-08-21T15:26:00.895Z,100639.66
2022-08-21T15:28:31.864Z,100647.84
2022-08-21T15:31:01.714Z,100600.25
2022-08-21T15:33:29.098Z,100631.22
2022-08-21T15:35:56.015Z,100607.00
2022-08-21T15:38:23.092Z,100626.88
2022-08-21T15:40:52.317Z,100620.59
2022-08-21T15:43:29.838Z,100638.09
2022-08-21T15:45:59.943Z,100630.13
2022-08-21T15:48:27.178Z,100641.03
2022-08-21T15:50:54.144Z,100605.28
2022-08-21T15:53:21.072Z,100601.44
2022-08-21T15:55:48.162Z,100650.72
2022-08-21T15:58:17.534Z,100690.88
2022-08-21T16:00:47.978Z,100664.75
2022-08-21T16:03:19.142Z,100643.50
2022-08-21T16:05:46.359Z,100683.22
2022-08-21T16:08:13.223Z,100597.84
2022-08-21T16:10:40.584Z,100613.97
2022-08-21T16:13:21.181Z,100621.88
2022-08-21T16:15:48.101Z,100673.38
2022-08-21T16:18:15.232Z,100692.28
2022-08-21T16:20:42.228Z,100646.97
2022-08-21T16:23:09.087Z,100642.38
2022-08-21T16:25:38.603Z,100694.03
2022-08-21T16:28:09.789Z,100671.41
2022-08-21T16:30:39.194Z,100652.22
2022-08-21T16:33:06.799Z,100659.44
2022-08-21T16:35:33.664Z,100666.41
2022-08-21T16:38:01.200Z,100639.22
2022-08-21T16:40:28.680Z,100704.69
2022-08-21T16:42:56.560Z,100592.88
2022-08-21T16:45:23.520Z,100712.69
2022-08-21T16:47:51.519Z,100646.91
2022-08-21T16:50:22.750Z,100568.13
2022-08-21T16:52:50.222Z,100700.66
2022-08-21T16:55:17.689Z,100709.66
2022-08-21T16:57:44.890Z,100717.56
2022-08-21T17:00:13.958Z,100669.50
2022-08-21T17:02:55.525Z,100722.53
2022-08-21T17:05:22.859Z,100694.00
2022-08-21T17:07:49.832Z,100721.72
2022-08-21T17:10:17.531Z,100698.63
2022-08-21T17:12:51.536Z,100725.72
2022-08-21T17:15:23.983Z,100708.06
2022-08-21T17:17:51.644Z,100703.13
2022-08-21T17:20:19.423Z,100646.22
2022-08-21T17:22:46.468Z,100628.19
2022-08-21T17:25:13.811Z,100733.47
2022-08-21T17:27:41.641Z,100690.81
2022-08-21T17:30:08.983Z,100698.19
2022-08-21T17:32:35.895Z,100672.81
2022-08-21T17:35:03.065Z,100684.53
2022-08-21T17:37:30.109Z,100702.06
2022-08-21T17:39:57.618Z,100740.72
2022-08-21T17:42:26.973Z,100708.41
2022-08-21T17:44:56.633Z,100652.69
2022-08-21T17:47:25.152Z,100693.59
2022-08-21T17:49:54.895Z,100662.91
2022-08-21T17:52:22.897Z,100676.56
2022-08-21T17:57:35.779Z,100677.41
2022-08-21T18:00:05.709Z,100739.03
2022-08-21T18:02:33.582Z,100743.03
2022-08-21T18:05:00.528Z,100652.44
2022-08-21T18:07:32.824Z,100698.50
2022-08-21T18:10:02.076Z,100670.03
2022-08-21T18:12:29.926Z,100677.88
2022-08-21T18:14:57.397Z,100689.38
2022-08-21T18:17:25.547Z,100672.13
2022-08-21T18:19:52.345Z,100739.97
2022-08-21T18:22:19.590Z,100685.09
2022-08-21T18:24:46.597Z,100740.94
2022-08-21T18:27:15.200Z,100744.84
2022-08-21T18:29:47.471Z,100760.72
2022-08-21T18:32:30.500Z,100728.28
2022-08-21T18:35:01.684Z,100738.00
2022-08-21T18:37:28.947Z,100692.09
2022-08-21T18:39:56.791Z,100743.47
2022-08-21T18:42:28.361Z,100792.72
2022-08-21T18:45:01.623Z,100772.97
2022-08-21T18:47:37.569Z,100801.16
2022-08-21T18:50:10.863Z,100752.44
2022-08-21T18:52:38.578Z,100748.53
2022-08-21T18:55:13.432Z,100803.31
2022-08-21T18:57:42.350Z,100784.34
2022-08-21T19:00:18.609Z,100793.16
2022-08-21T19:02:45.459Z,100775.34
2022-08-21T19:05:15.185Z,100817.03
2022-08-21T19:07:41.966Z,100797.19
2022-08-21T19:10:28.033Z,100809.38
2022-08-21T19:12:59.371Z,100824.31
2022-08-21T19:15:26.767Z,100806.63
2022-08-21T19:17:54.489Z,100836.31
2022-08-21T19:20:28.353Z,100821.78
2022-08-21T19:22:56.393Z,100844.06
2022-08-21T19:28:16.207Z,100826.97
2022-08-21T19:30:56.508Z,100838.66
2022-08-21T19:33:37.991Z,100845.31
2022-08-21T19:36:08.157Z,100837.88
2022-08-21T19:38:36.730Z,100837.25
2022-08-21T19:41:06.277Z,100801.59
2022-08-21T19:43:41.044Z,100819.22
2022-08-21T19:46:08.079Z,100801.53
2022-08-21T19:48:37.367Z,100837.22
2022-08-21T19:51:05.302Z,100847.19
2022-08-21T19:53:32.072Z,100869.22
2022-08-21T19:55:58.853Z,100832.06
2022-08-21T19:58:38.592Z,100843.16
2022-08-21T20:01:16.578Z,100852.50
2022-08-21T20:06:33.244Z,100818.69
2022-08-21T20:09:00.171Z,100877.13
2022-08-21T20:11:36.531Z,100869.47
2022-08-21T20:14:04.995Z,100878.69
2022-08-21T20:16:31.718Z,100862.25
2022-08-21T20:18:58.681Z,100844.03
2022-08-21T20:21:25.441Z,100851.81
2022-08-21T20:23:53.011Z,100839.03
2022-08-21T20:26:19.943Z,100870.84
2022-08-21T20:31:33.817Z,100872.19
2022-08-21T20:34:00.835Z,100874.31
2022-08-21T20:36:27.599Z,100856.22
2022-08-21T20:38:54.726Z,100855.97
2022-08-21T20:41:30.443Z,100868.00
2022-08-21T20:43:59.222Z,100851.06
2022-08-21T20:46:27.732Z,100842.81
2022-08-21T20:48:54.914Z,100859.56
2022-08-21T20:51:34.783Z,100873.47
2022-08-21T20:54:04.565Z,100812.97
2022-08-21T20:56:56.287Z,100876.53
2022-08-21T20:59:33.339Z,100830.22
2022-08-21T21:02:15.130Z,100880.34
2022-08-21T21:05:22.270Z,100883.78
2022-08-21T21:08:19.575Z,100883.50
2022-08-21T21:10:55.349Z,100882.34
2022-08-21T21:13:44.035Z,100848.16
2022-08-21T21:16:17.973Z,100851.44
2022-08-21T21:18:51.047Z,100846.88
2022-08-21T21:22:11.142Z,100870.84
2022-08-21T21:24:51.346Z,100884.41
2022-08-21T21:27:29.591Z,100887.38
2022-08-21T21:30:26.799Z,100866.19
2022-08-21T21:32:53.730Z,100848.09
2022-08-21T21:35:32.560Z,100892.22
2022-08-21T21:38:26.158Z,100848.88
2022-08-21T21:41:03.154Z,100889.56
2022-08-21T21:43:52.885Z,100897.19
2022-08-21T21:46:34.716Z,100893.56
2022-08-21T21:49:33.143Z,100891.84
2022-08-21T21:52:21.133Z,100896.81
2022-08-21T21:55:01.321Z,100896.81
2022-08-21T21:57:45.913Z,100908.88
2022-08-21T22:00:20.895Z,100860.94
2022-08-21T22:03:16.670Z,100899.97
2022-08-21T22:06:07.565Z,100906.78
2022-08-21T22:09:05.231Z,100899.81
2022-08-21T22:12:03.217Z,100906.75
2022-08-21T22:14:40.728Z,100873.25
2022-08-21T22:17:28.905Z,100903.13
2022-08-21T22:19:58.346Z,100869.66
2022-08-21T22:22:28.991Z,100853.31
2022-08-21T22:25:03.802Z,100898.94
2022-08-21T22:27:37.111Z,100908.94
2022-08-21T22:30:06.668Z,100905.38
2022-08-21T22:32:52.426Z,100914.31
2022-08-21T22:35:24.019Z,100908.25
2022-08-21T22:37:55.147Z,100871.06
2022-08-21T22:40:32.353Z,100893.66
2022-08-21T22:43:16.343Z,100866.09
2022-08-21T22:45:57.511Z,100906.63
2022-08-21T22:48:29.531Z,100874.94
2022-08-21T22:51:24.226Z,100881.28
2022-08-21T22:53:57.535Z,100896.56
2022-08-21T22:56:35.302Z,100877.34
2022-08-21T22:59:11.215Z,100887.97
2022-08-21T23:01:44.712Z,100921.53
2022-08-21T23:04:22.773Z,100910.00
2022-08-21T23:07:02.435Z,100890.34
2022-08-21T23:09:32.650Z,100918.97
2022-08-21T23:12:21.069Z,100912.94
2022-08-21T23:14:55.026Z,100893.59
2022-08-21T23:17:49.817Z,100862.28
2022-08-21T23:20:31.303Z,100837.78
2022-08-21T23:23:19.182Z,100899.03
2022-08-21T23:26:17.608Z,100906.53
2022-08-21T23:29:13.941Z,100915.88
2022-08-21T23:32:08.339Z,100883.53
2022-08-21T23:34:52.678Z,100872.34
2022-08-21T23:37:51.481Z,100905.16
2022-08-21T23:40:50.809Z,100916.34
2022-08-21T23:43:38.849Z,100904.59
2022-08-21T23:46:08.554Z,100911.16
2022-08-21T23:49:00.740Z,100906.75
2022-08-21T23:51:47.170Z,100911.16
2022-08-21T23:54:29.306Z,100907.94
